Doberlug Kirchhain, Germany

12:05 PM CET on March 28, 2015 (GMT +0100)
Kahla, Brandenburg, Germany | | Change Station
CLOSE
Current Station
Personal Weather Station
Location: Plessa, BRANDENBURG
Elevation: 312 ft
Nearby Weather Stations

Elev 312 ft 51.47 °N, 13.57 °E | Updated 10 seconds ago

Mostly Cloudy
Mostly Cloudy
45.5 °F
Feels Like 42 °F
N
6.7
Wind Variable Wind from WSW
Gusts 7.4 mph

Today
High -- | Low -- °F
--% Chance of Precip.
Yesterday
High -- | Low -- °F
Precip. -- in
5:51 AM 6:31 PM
First Quarter, 61% visible
Pressure 30.12 in
Visibility 6.2 miles
Clouds Scattered Clouds 3000 ft
Mostly Cloudy 5200 ft
Windchill 42 °F
Dew Point 32 °F
Humidity 59%
Rainfall 0.00 in
Snow Depth Not available.
UV 1.0 out of 12
Pollen Not available.
Air Quality Not available.
Flu Activity Not available.
METAR EDDC 281050Z 28006KT 9999 SCT030 BKN052 06/01 Q1020 NOSIG

More Conditions Fewer Conditions

Pressure 30.12 in
Visibility 6.2 miles
Clouds Scattered Clouds 3000 ft
Mostly Cloudy 5200 ft
Windchill 42 °F
Dew Point 32 °F
Humidity 59%
Rainfall 0.00 in
Snow Depth Not available.
UV 1.0 out of 12
Pollen Not available.
Air Quality Not available.
Flu Activity Not available.
METAR EDDC 281050Z 28006KT 9999 SCT030 BKN052 06/01 Q1020 NOSIG

More Conditions Fewer Conditions

10-Day Weather Forecast

Almanac

Astronomy

Mar. 28, 2015 Rise Set
Actual Time
Civil Twilight
Nautical Twilight
Astronomical Twilight
Moon
Length of Visible Light
Length of Day
Tomorrow will be .
, % of the Moon is Illuminated

Today's Extremes

Country Highs Country Lows

Community

WunderPhotos

Upload Photos

1,808,955 photos uploaded!

WunderBlogs® & News

Nearby

Air Quality

  Air Quality AQ Index Pollutant
Not available.

Snow Depth

Station Depth Elevation

Earthquake Activity

City Distance Mag. Time & Date
Minimum magnitude displayed is 2.5.

Coastal Water Temperatures

Place Temperature

Stations

Nearby Weather Stations

Station Location Temp. Windchill Dew Point Humidity Wind Precip. Elev Updated Type